Southern California Logo

Carlsbad, CA Condo Real Estate Listings

114 Total Real Estate Listings * Click on table heading to sort
Date Posted Property Type Style Address Price Living Area Lot Size Price/Sq Ft.
2018-08-30 Condo Other 7428 Altiva Place Carlsbad, CA 92009 $419,000 1,032 sq. ft. 98,010 sq. ft. $406
2018-06-19 Condo 4537 Hartford Pl Carlsbad, CA 92010 $620,000 1,724 sq. ft. 3,920 sq. ft. $360
2018-06-19 Condo 3438 Ravine Drive Carlsbad, CA 92010 $915,000 2,705 sq. ft. 5,663 sq. ft. $338
2018-06-19 Condo Modern 377 Juniper Ave Carlsbad, CA 92008 $1,050,000 1,653 sq. ft. 8,276 sq. ft. $635
2018-06-19 Condo 3210 Costa Alta Drive Carlsbad, CA 92009 $398,000 960 sq. ft. $415
2018-06-18 Condo Mediterranean/Spanish 7620 Camino Abierto Carlsbad, CA 92009 $879,900 1,989 sq. ft. $442
2018-06-18 Condo Medspn 6924 Thrush Pl Carlsbad, CA 92011 $729,000 1,743 sq. ft. 117,176 sq. ft. $418
2018-06-16 Condo 4014 Layang Layang Cir Carlsbad, CA 92008 $599,000 1,664 sq. ft. 133,294 sq. ft. $360
2018-06-15 Condo 7735 Via Rico Carlsbad, CA 92009 $699,000 2,089 sq. ft. 179,032 sq. ft. $335
2018-06-15 Condo 3156 Via Puerta Carlsbad, CA 92009 $589,000 1,456 sq. ft. $405
2018-06-15 Condo Crftbg 6802 Urubu Street Carlsbad, CA 92009 $669,500 1,369 sq. ft. $489
2018-06-15 Condo Contemporary 4113 Peninsula Dr Carlsbad, CA 92010 $624,900 1,509 sq. ft. 88,427 sq. ft. $414
2018-06-15 Condo 4008 Layang Layang Cir Carlsbad, CA 92008 $544,900 1,664 sq. ft. 133,294 sq. ft. $327
2018-06-15 Condo 2558 Navarra Dr Carlsbad, CA 92009 $529,000 1,846 sq. ft. $287
2018-06-14 Condo 3391 Campo Azul Court Carlsbad, CA 92010 $555,990 1,452 sq. ft. $383
2018-06-14 Condo 3395 Campo Azul Court Carlsbad, CA 92010 $552,990 1,420 sq. ft. $389
2018-06-14 Condo 175 Maple Ave Carlsbad, CA 92008 $1,439,000 2,057 sq. ft. $700
2018-06-13 Condo 3220 Corte Tamarindo Carlsbad, CA 92009 $1,400,000 4,212 sq. ft. 8,712 sq. ft. $332
2018-06-12 Condo Colonial 6575 Paseo Del Norte Carlsbad, CA 92011 $599,000 1,060 sq. ft. 268,765 sq. ft. $565
2018-06-12 Condo 2349 Caringa Way Carlsbad, CA 92009 $549,000 1,533 sq. ft. 65,340 sq. ft. $358
2018-06-11 Condo 2866 Englewood Way Carlsbad, CA 92010 $509,000 1,362 sq. ft. 107,158 sq. ft. $374
2018-06-11 Condo 7230 Surfbird Cir Carlsbad, CA 92011 $825,000 1,705 sq. ft. 23,958 sq. ft. $484
2018-06-10 Condo Mediterranean/Spanish 7175 Pintail Dr Carlsbad, CA 92011 $885,000 2,323 sq. ft. $381
2018-06-10 Condo 2625 Pirineos Way Carlsbad, CA 92009 $480,000 1,357 sq. ft. $354
2018-06-09 Condo 3168 Camino Arroyo Carlsbad, CA 92009 $520,000 1,409 sq. ft. 205,168 sq. ft. $369
2018-06-09 Condo 3064 Rancho La Presa Carlsbad, CA 92009 $649,800 1,411 sq. ft. 6,098 sq. ft. $461
2018-06-09 Condo 3538 Ridgewood Way Carlsbad, CA 92010 $415,000 994 sq. ft. $418
2018-06-09 Condo Mediterranean/Spanish 907 Caminito Madrigal Carlsbad, CA 92011 $625,000 1,180 sq. ft. $530
2018-06-08 Condo 6747 Palermi Place Carlsbad, CA 92011 $1,170,000 3,126 sq. ft. $374
2018-06-08 Condo 7413 Magellan St Carlsbad, CA 92011 $1,295,000 2,736 sq. ft. 6,098 sq. ft. $473
2018-06-08 Condo 2988 Camino Serbal Carlsbad, CA 92009 $1,199,000 3,305 sq. ft. 8,712 sq. ft. $363
2018-06-08 Condo Mediterranean/Spanish 6106 Rancho Brida Carlsbad, CA 92009 $459,000 1,044 sq. ft. 223,898 sq. ft. $440
2018-06-07 Condo Contemporary 7512 Viejo Castilla Way Carlsbad, CA 92009 $424,900 979 sq. ft. $434
2018-06-07 Condo 3125 Calle Viento Carlsbad, CA 92009 $523,888 1,158 sq. ft. 446,054 sq. ft. $452
2018-06-07 Condo Mediterranean/Spanish 755 Magnolia Ave Carlsbad, CA 92008 $669,000 1,092 sq. ft. $613
2018-06-07 Condo 2319 Caringa Way Carlsbad, CA 92009 $539,999 1,536 sq. ft. $352
2018-06-06 Condo 2348 La Costa Avenue Carlsbad, CA 92009 $425,000 842 sq. ft. $505
2018-06-06 Condo Mediterranean/Spanish 1917 Alga Road Carlsbad, CA 92009 $395,000 1,104 sq. ft. $358
2018-06-06 Condo 7578 Gibraltar St Carlsbad, CA 92009 $475,000 1,300 sq. ft. 16,117 sq. ft. $365
2018-06-05 Condo 3533 Cedarbridge Way Carlsbad, CA 92010 $469,000 1,112 sq. ft. $422
2018-06-04 Condo 2495 Wellspring Street Carlsbad, CA 92010 $1,700,000 3,897 sq. ft. $436
2018-06-04 Condo 2491 Wellspring Street Carlsbad, CA 92010 $1,600,000 3,019 sq. ft. $530
2018-06-04 Condo 2487 Wellspring Street Carlsbad, CA 92010 $1,500,000 2,984 sq. ft. $503
2018-06-04 Condo 2920 Avenida Pimentera Carlsbad, CA 92009 $1,325,000 3,344 sq. ft. $396
2018-06-04 Condo Mediterranean/Spanish 2815 Unicornio St Carlsbad, CA 92009 $649,900 1,826 sq. ft. 52,272 sq. ft. $356
2018-06-04 Condo 3107 Simba Way Carlsbad, CA 92010 $634,990 1,610 sq. ft. $394
2018-06-02 Condo Medspn 7030 Snapdragon Carlsbad, CA 92011 $825,000 1,617 sq. ft. $510
2018-06-01 Condo 818 Caminito Azul Carlsbad, CA 92011 $600,000 1,350 sq. ft. $444
2018-06-01 Condo 4637 Park Dr Carlsbad, CA 92008 $699,950 1,268 sq. ft. 17,424 sq. ft. $552
2018-05-31 Condo Cape Cod 2567 State St Carlsbad, CA 92008 $1,225,000 2,147 sq. ft. $571
2018-05-30 Condo 1662 Chamisal Ct Carlsbad, CA 92011 $825,000 1,707 sq. ft. $483
2018-05-30 Condo Cape Cod 6926 Carnation Dr Carlsbad, CA 92011 $574,500 1,342 sq. ft. 259,182 sq. ft. $428
2018-05-29 Condo 3150 Via Simpatia Carlsbad, CA 92009 $499,000 1,316 sq. ft. 74,923 sq. ft. $379
2018-05-25 Condo 1708 Carissa Way Carlsbad, CA 92011 $719,000 1,720 sq. ft. $418
2018-05-24 Condo 4839 Nelson Court Carlsbad, CA 92010 $1,400,000 2,959 sq. ft. $473
2018-05-24 Condo 813 Kalpati Cir Carlsbad, CA 92008 $649,000 1,660 sq. ft. $391
2018-05-24 Condo Contmp 7042 Via Ostiones Carlsbad, CA 92009 $925,000 2,815 sq. ft. 7,405 sq. ft. $329
2018-05-23 Condo Contemporary 2687 State Street Carlsbad, CA 92008 $1,475,000 2,022 sq. ft. $729
2018-05-23 Condo Cape Cod 2557 State St Carlsbad, CA 92008 $1,265,000 2,180 sq. ft. $580
2018-05-22 Condo 6987 Brass Place Carlsbad, CA 92009 $729,000 2,216 sq. ft. 41,382 sq. ft. $329
2018-05-22 Condo 3675 Glen Ave Carlsbad, CA 92010 $829,900 1,904 sq. ft. $436
2018-05-19 Condo 4832 Nelson Court Carlsbad, CA 92010 $1,249,810 2,959 sq. ft. $422
2018-05-19 Condo 4726 Chase Court Carlsbad, CA 92010 $2,200,000 3,878 sq. ft. $567
2018-05-19 Condo 4718 Chase Court Carlsbad, CA 92010 $2,200,000 4,407 sq. ft. $499
2018-05-19 Condo 4732 Borden Court Carlsbad, CA 92010 $1,278,900 4,407 sq. ft. 6,098 sq. ft. $290
2018-05-19 Condo 111 Tamarack Avenue 104 Carlsbad, CA 92008 $1,299,000 1,398 sq. ft. 26,572 sq. ft. $929
2018-05-18 Condo 2360 Hosp Way Carlsbad, CA 92008 $349,000 810 sq. ft. $431
2018-05-18 Condo 517 Dew Point Avenue Carlsbad, CA 92011 $949,000 2,031 sq. ft. $467
2018-05-17 Condo 1030 Camino De Las Ondas Carlsbad, CA 92011 $1,069,990 2,313 sq. ft. $463
2018-05-17 Condo 1034 Camino De Las Ondas Carlsbad, CA 92011 $1,099,990 2,431 sq. ft. $452
2018-05-17 Condo 1038 Camino De Las Ondas Carlsbad, CA 92011 $1,099,990 2,431 sq. ft. $452
2018-05-17 Condo 1040 Camino De Las Ondas Carlsbad, CA 92011 $1,069,990 2,313 sq. ft. $463
2018-05-16 Condo 4637 Park Carlsbad, CA 92008 $849,000 1,200 sq. ft. $708
2018-05-14 Condo 2535 Navarra Dr Carlsbad, CA 92009 $412,000 1,190 sq. ft. 54,014 sq. ft. $346
2018-05-12 Condo 3708 Ridge Court Carlsbad, CA 92010 $779,000 1,957 sq. ft. $398
2018-05-11 Condo 2630 Pirineos Way Carlsbad, CA 92009 $405,000 978 sq. ft. $414
2018-05-11 Condo 4022 Layang Layang Circle Carlsbad, CA 92008 $499,000 1,271 sq. ft. $393
2018-05-11 Condo 6566 Corte Cisco Carlsbad, CA 92009 $598,000 1,714 sq. ft. $349
2018-05-10 Condo 2862 Englewood Way Carlsbad, CA 92010 $534,900 1,512 sq. ft. 107,158 sq. ft. $354
2018-05-10 Condo 1716 Fairlead Carlsbad, CA 92011 $665,000 1,500 sq. ft. $443
2018-05-08 Condo 3251 Tondi Way Carlsbad, CA 92010 $704,990 2,011 sq. ft. $351
2018-05-08 Condo 2340 Hosp Way Carlsbad, CA 92008 $349,900 1,017 sq. ft. $344
2018-05-07 Condo Contemporary 1706 Camassia Lane Carlsbad, CA 92011 $649,900 1,545 sq. ft. $421
2018-05-06 Condo 2270 La Costa Ave Carlsbad, CA 92009 $549,000 1,230 sq. ft. $446
2018-05-06 Condo Craftsman/Bungalow 7309 Lantana Terrace Carlsbad, CA 92011 $738,000 1,278 sq. ft. 3,485 sq. ft. $577
2018-05-06 Condo 2504 Navarra Drive Carlsbad, CA 92009 $539,999 1,392 sq. ft. $388
2018-05-06 Condo 4722 Chase Court Carlsbad, CA 92010 $2,000,000 4,427 sq. ft. $452
2018-05-06 Condo 2534 Glasgow Carlsbad, CA 92010 $1,324,580 3,282 sq. ft. $404
2018-05-06 Condo 4732 Kentner Court Carlsbad, CA 92010 $1,182,610 2,961 sq. ft. $399
2018-05-06 Condo 4728 Kentner Ct Carlsbad, CA 92010 $1,219,000 4,407 sq. ft. $277
2018-05-06 Condo 4736 Kentner Court Carlsbad, CA 92010 $1,225,000 4,427 sq. ft. $277
2018-05-06 Condo 1971 Swallow Ln Carlsbad, CA 92009 $519,000 1,342 sq. ft. $387
2018-05-06 Condo Capcod 3732 Bennington Ct Carlsbad, CA 92010 $479,000 1,000 sq. ft. 1,307 sq. ft. $479
2018-05-06 Condo 2544 Navarra Dr Carlsbad, CA 92009 $450,000 1,411 sq. ft. $319
2018-03-26 Condo Mediterranean/Spanish 7319 Estrella De Mar Road Carlsbad, CA 92009 $1,199,000 1,810 sq. ft. $662
2018-03-25 Condo Custom Built 295 Chinquapin Avenue Carlsbad, CA 92008 $1,899,900 2,630 sq. ft. $722
2018-03-22 Condo 2006 Costa Del Mar Rd Carlsbad, CA 92009 $969,900 1,810 sq. ft. 11,761 sq. ft. $536
2018-03-18 Condo Craftsman/Bungalow 3465 Don Lorenzo Carlsbad, CA 92010 $488,800 1,997 sq. ft. $245
2018-03-16 Condo Contemporary 4032 Garfield Carlsbad, CA 92008 $959,000 1,514 sq. ft. $633
2018-03-15 Condo Craftsman/Bungalow 5434 Don Felipe Drive Carlsbad, CA 92010 $430,000 1,744 sq. ft. $247
2018-03-10 Condo 7787 Caminito Monarca Carlsbad, CA 92009 $619,000 1,622 sq. ft. $382
2018-03-09 Condo 7047 Estrella De Mar Rd Carlsbad, CA 92009 $549,000 2,120 sq. ft. $259
2018-02-10 Condo 2567 Glasgow Carlsbad, CA 92010 $1,550,000 4,313 sq. ft. $359
2018-02-10 Condo 831 Kalpati Circle Carlsbad, CA 92008 $535,000 1,154 sq. ft. $464
2018-02-05 Condo 4730 Crespi Court Carlsbad, CA 92010 $1,256,500 4,686 sq. ft. $268
2018-02-05 Condo Mediterranean/Spanish 7323 Estrella De Mar Road Carlsbad, CA 92009 $325,000 578 sq. ft. $562
2018-02-01 Condo Mediterranean/Spanish 4747 Marina Drive Carlsbad, CA 92008 $950,000 1,278 sq. ft. $743
2018-02-01 Condo Mediterranean/Spanish 4747 Marina Drive Carlsbad, CA 92008 $875,000 1,278 sq. ft. $685
2018-01-19 Condo Cape Cod 7039 Whitewater Street Carlsbad, CA 92011 $2,000,000 2,142 sq. ft. $934
2017-12-16 Condo Mediterranean/Spanish 7323 Estrella De Mar Carlsbad, CA 92009 $349,000 675 sq. ft. $517
2017-11-30 Condo Mediterranean/Spanish 7323 Estrella De Mar Road Carlsbad, CA 92009 $365,000 690 sq. ft. $529
2017-09-23 Condo 6901 Quail Pl Carlsbad, CA 92009 $374,900 1,150 sq. ft. $326
2017-07-10 Condo Mediterranean/Spanish 2005 Costa Del Mar Carlsbad, CA 92009 $485,000 800 sq. ft. $606
2017-06-30 Condo Contemporary 7105 Whitewater Carlsbad, CA 92011 $2,350,000 2,277 sq. ft. $1,032